YZR7919 ZSNJ-ZWWW
Flight info
| Callsign | YZR7919 |
|---|---|
| Flight time | N/A |
| Altitude | 36100 |
| Route | HFE B208 PADNO W210 URBIL V119 BISAL V90 LEBOM B215 NIRUV W199 ALGOT V67 NUKTI B215 DUMAM |
| Aircraft | B77L/H-SDE2E3FGILRWXY/LB2 |
Departure
| Time | 2026-04-21 01:38 |
|---|---|
| Airport | Nanjing Lukou International Airport (ZSNJ) |
Arrival
| Time | N/A |
|---|---|
| Airport | Ürümqi Tianshan International Airport (ZWWW) |
| Time | Latitude | Longitude | Altitude | Speed | Heading |
|---|---|---|---|---|---|
| 2026-04-21 00:26 | 31.74254 | 118.87054 | 63 ft | 0 kts | 148° |
| 2026-04-21 01:29 | 31.74250 | 118.87056 | 63 ft | 1 kts | 153° |
| 2026-04-21 01:29 | 31.74240 | 118.87059 | 63 ft | 1 kts | 181° |
| 2026-04-21 01:29 | 31.74232 | 118.87054 | 63 ft | 1 kts | 222° |
| 2026-04-21 01:30 | 31.74228 | 118.87045 | 63 ft | 1 kts | 261° |
| 2026-04-21 01:30 | 31.74230 | 118.87035 | 63 ft | 1 kts | 296° |
| 2026-04-21 01:30 | 31.74236 | 118.87028 | 63 ft | 2 kts | 313° |
| 2026-04-21 01:30 | 31.74253 | 118.87006 | 63 ft | 5 kts | 313° |
| 2026-04-21 01:31 | 31.74283 | 118.86968 | 63 ft | 7 kts | 313° |
| 2026-04-21 01:31 | 31.74327 | 118.86923 | 63 ft | 7 kts | 325° |
| 2026-04-21 01:31 | 31.74355 | 118.86867 | 63 ft | 9 kts | 265° |
| 2026-04-21 01:31 | 31.74323 | 118.86790 | 63 ft | 11 kts | 238° |
| 2026-04-21 01:32 | 31.74276 | 118.86701 | 63 ft | 13 kts | 238° |
| 2026-04-21 01:32 | 31.74222 | 118.86601 | 63 ft | 15 kts | 238° |
| 2026-04-21 01:32 | 31.74164 | 118.86493 | 63 ft | 16 kts | 238° |
| 2026-04-21 01:32 | 31.74101 | 118.86374 | 63 ft | 17 kts | 238° |
| 2026-04-21 01:33 | 31.74033 | 118.86247 | 63 ft | 18 kts | 238° |
| 2026-04-21 01:33 | 31.73963 | 118.86115 | 63 ft | 19 kts | 238° |
| 2026-04-21 01:33 | 31.73888 | 118.85976 | 63 ft | 20 kts | 238° |
| 2026-04-21 01:33 | 31.73811 | 118.85832 | 63 ft | 21 kts | 238° |
| 2026-04-21 01:34 | 31.73731 | 118.85682 | 63 ft | 22 kts | 238° |
| 2026-04-21 01:34 | 31.73648 | 118.85527 | 63 ft | 22 kts | 238° |
| 2026-04-21 01:34 | 31.73574 | 118.85387 | 63 ft | 19 kts | 238° |
| 2026-04-21 01:34 | 31.73501 | 118.85252 | 63 ft | 20 kts | 238° |
| 2026-04-21 01:35 | 31.73426 | 118.85110 | 63 ft | 20 kts | 238° |
| 2026-04-21 01:35 | 31.73352 | 118.84973 | 63 ft | 20 kts | 238° |
| 2026-04-21 01:35 | 31.73277 | 118.84830 | 63 ft | 20 kts | 237° |
| 2026-04-21 01:35 | 31.73230 | 118.84741 | 63 ft | 9 kts | 249° |
| 2026-04-21 01:36 | 31.73258 | 118.84679 | 63 ft | 9 kts | 325° |
| 2026-04-21 01:36 | 31.73306 | 118.84641 | 63 ft | 8 kts | 327° |
| 2026-04-21 01:36 | 31.73365 | 118.84623 | 63 ft | 9 kts | 25° |
| 2026-04-21 01:36 | 31.73406 | 118.84681 | 63 ft | 0 kts | 58° |
| 2026-04-21 01:37 | 31.73428 | 118.84721 | 63 ft | 25 kts | 58° |
| 2026-04-21 01:37 | 31.73649 | 118.85133 | 63 ft | 93 kts | 58° |
| 2026-04-21 01:37 | 31.74108 | 118.85989 | 63 ft | 153 kts | 56° |
| 2026-04-21 01:38 | 31.74771 | 118.87212 | 219 ft | 188 kts | 59° |
| 2026-04-21 01:38 | 31.75507 | 118.88567 | 742 ft | 209 kts | 61° |
| 2026-04-21 01:38 | 31.76212 | 118.89912 | 1970 ft | 189 kts | 64° |
| 2026-04-21 01:38 | 31.76916 | 118.91256 | 2431 ft | 203 kts | 64° |
| 2026-04-21 01:39 | 31.77683 | 118.92704 | 2913 ft | 216 kts | 63° |
| 2026-04-21 01:39 | 31.78488 | 118.94212 | 3586 ft | 222 kts | 62° |
| 2026-04-21 01:39 | 31.79324 | 118.95782 | 4124 ft | 234 kts | 62° |
| 2026-04-21 01:39 | 31.80194 | 118.97415 | 4833 ft | 239 kts | 62° |
| 2026-04-21 01:40 | 31.81080 | 118.99080 | 5510 ft | 244 kts | 61° |
| 2026-04-21 01:40 | 31.81983 | 119.00777 | 6185 ft | 249 kts | 60° |
| 2026-04-21 01:40 | 31.82911 | 119.02523 | 6758 ft | 255 kts | 60° |
| 2026-04-21 01:40 | 31.83861 | 119.04310 | 6891 ft | 256 kts | 60° |
| 2026-04-21 01:41 | 31.84798 | 119.06072 | 6911 ft | 255 kts | 60° |
| 2026-04-21 01:41 | 31.85735 | 119.07837 | 6914 ft | 255 kts | 60° |
| 2026-04-21 01:41 | 31.86679 | 119.09618 | 6903 ft | 255 kts | 60° |
| 2026-04-21 01:41 | 31.87680 | 119.11321 | 6896 ft | 256 kts | 47° |
| 2026-04-21 01:42 | 31.89182 | 119.12491 | 6898 ft | 261 kts | 20° |
| 2026-04-21 01:42 | 31.90977 | 119.12750 | 6900 ft | 263 kts | 352° |
| 2026-04-21 01:42 | 31.92692 | 119.12028 | 6901 ft | 266 kts | 324° |
| 2026-04-21 01:42 | 31.93957 | 119.10449 | 6900 ft | 266 kts | 296° |
| 2026-04-21 01:43 | 31.94475 | 119.08405 | 6900 ft | 264 kts | 273° |
| 2026-04-21 01:43 | 31.94561 | 119.06242 | 6904 ft | 264 kts | 268° |
| 2026-04-21 01:43 | 31.94238 | 119.04130 | 6899 ft | 259 kts | 243° |
| 2026-04-21 01:43 | 31.93356 | 119.02209 | 6914 ft | 274 kts | 237° |
| 2026-04-21 01:44 | 31.92349 | 119.00288 | 6903 ft | 279 kts | 236° |
| 2026-04-21 01:44 | 31.91319 | 118.98351 | 6907 ft | 279 kts | 236° |
| 2026-04-21 01:44 | 31.90291 | 118.96414 | 6905 ft | 278 kts | 236° |
| 2026-04-21 01:44 | 31.89261 | 118.94473 | 6910 ft | 279 kts | 236° |
| 2026-04-21 01:45 | 31.88236 | 118.92540 | 6980 ft | 290 kts | 236° |
| 2026-04-21 01:45 | 31.87185 | 118.90559 | 7939 ft | 283 kts | 236° |
| 2026-04-21 01:45 | 31.86155 | 118.88615 | 8848 ft | 278 kts | 236° |
| 2026-04-21 01:45 | 31.85200 | 118.86649 | 9564 ft | 281 kts | 243° |
| 2026-04-21 01:46 | 31.84518 | 118.84495 | 10212 ft | 287 kts | 253° |
| 2026-04-21 01:46 | 31.84141 | 118.82159 | 10613 ft | 302 kts | 262° |
| 2026-04-21 01:46 | 31.83939 | 118.79610 | 10930 ft | 319 kts | 263° |
| 2026-04-21 01:46 | 31.83730 | 118.76975 | 11275 ft | 336 kts | 263° |
| 2026-04-21 01:47 | 31.83492 | 118.74187 | 11651 ft | 352 kts | 263° |
| 2026-04-21 01:47 | 31.83234 | 118.71252 | 12065 ft | 367 kts | 262° |
| 2026-04-21 01:47 | 31.82961 | 118.68195 | 12495 ft | 382 kts | 263° |
| 2026-04-21 01:47 | 31.82681 | 118.65070 | 13018 ft | 393 kts | 263° |
| 2026-04-21 01:48 | 31.82393 | 118.61857 | 13770 ft | 397 kts | 263° |
| 2026-04-21 01:48 | 31.82105 | 118.58650 | 14589 ft | 400 kts | 263° |
| 2026-04-21 01:48 | 31.81812 | 118.55403 | 15477 ft | 400 kts | 263° |
| 2026-04-21 01:48 | 31.81519 | 118.52171 | 16290 ft | 403 kts | 264° |
| 2026-04-21 01:49 | 31.81222 | 118.48898 | 17010 ft | 407 kts | 264° |
| 2026-04-21 01:49 | 31.80920 | 118.45576 | 17739 ft | 410 kts | 264° |
| 2026-04-21 01:49 | 31.80617 | 118.42260 | 18482 ft | 412 kts | 264° |
| 2026-04-21 01:49 | 31.80308 | 118.38886 | 19200 ft | 415 kts | 264° |
| 2026-04-21 01:50 | 31.80000 | 118.35534 | 19882 ft | 417 kts | 264° |
| 2026-04-21 01:50 | 31.79685 | 118.32121 | 20537 ft | 421 kts | 263° |
| 2026-04-21 01:50 | 31.79383 | 118.28735 | 21212 ft | 423 kts | 265° |
| 2026-04-21 01:50 | 31.79294 | 118.25286 | 21869 ft | 425 kts | 269° |
| 2026-04-21 01:51 | 31.79259 | 118.21794 | 22472 ft | 428 kts | 268° |
| 2026-04-21 01:51 | 31.79215 | 118.18306 | 23035 ft | 432 kts | 268° |
| 2026-04-21 01:51 | 31.79162 | 118.14751 | 23600 ft | 436 kts | 268° |
| 2026-04-21 01:51 | 31.79104 | 118.11211 | 24139 ft | 440 kts | 268° |
| 2026-04-21 01:52 | 31.79040 | 118.07619 | 24762 ft | 442 kts | 268° |
| 2026-04-21 01:52 | 31.78923 | 118.00358 | 25940 ft | 450 kts | 268° |
| 2026-04-21 01:52 | 31.78861 | 117.96675 | 26569 ft | 452 kts | 268° |
| 2026-04-21 01:53 | 31.78797 | 117.92989 | 27156 ft | 456 kts | 268° |
| 2026-04-21 01:53 | 31.78730 | 117.89227 | 27705 ft | 460 kts | 268° |
| 2026-04-21 01:53 | 31.78661 | 117.85474 | 28234 ft | 465 kts | 268° |
| 2026-04-21 01:53 | 31.78589 | 117.81674 | 28840 ft | 468 kts | 268° |
| 2026-04-21 01:54 | 31.78516 | 117.77853 | 29474 ft | 470 kts | 268° |
| 2026-04-21 01:54 | 31.78442 | 117.74068 | 30206 ft | 469 kts | 268° |
| 2026-04-21 01:54 | 31.78367 | 117.70278 | 31037 ft | 466 kts | 268° |
| 2026-04-21 01:54 | 31.78291 | 117.66498 | 31857 ft | 462 kts | 268° |
| 2026-04-21 01:55 | 31.78214 | 117.62736 | 32548 ft | 461 kts | 268° |
| 2026-04-21 01:55 | 31.78136 | 117.58968 | 33106 ft | 462 kts | 268° |
| 2026-04-21 01:55 | 31.78057 | 117.55221 | 33709 ft | 461 kts | 268° |
| 2026-04-21 01:55 | 31.77977 | 117.51479 | 34167 ft | 462 kts | 268° |
| 2026-04-21 01:56 | 31.77894 | 117.47646 | 34179 ft | 461 kts | 268° |
| 2026-04-21 01:56 | 31.77729 | 117.40160 | 34173 ft | 458 kts | 269° |
| 2026-04-21 01:57 | 31.78495 | 117.32614 | 34178 ft | 462 kts | 284° |
| 2026-04-21 01:57 | 31.81078 | 117.25595 | 34181 ft | 465 kts | 300° |
| 2026-04-21 01:58 | 31.85096 | 117.19559 | 34177 ft | 468 kts | 308° |
| 2026-04-21 01:58 | 31.89344 | 117.13726 | 34182 ft | 468 kts | 308° |
| 2026-04-21 01:59 | 31.93569 | 117.07893 | 34179 ft | 467 kts | 308° |
| 2026-04-21 01:59 | 31.97749 | 117.02102 | 34186 ft | 468 kts | 308° |
| 2026-04-21 02:00 | 32.01979 | 116.96245 | 34180 ft | 467 kts | 308° |
| 2026-04-21 02:00 | 32.06226 | 116.90361 | 34181 ft | 468 kts | 308° |
| 2026-04-21 02:01 | 32.10450 | 116.84499 | 34176 ft | 467 kts | 308° |
| 2026-04-21 02:01 | 32.14628 | 116.78691 | 34180 ft | 466 kts | 308° |
| 2026-04-21 02:02 | 32.18824 | 116.72846 | 34179 ft | 465 kts | 308° |
| 2026-04-21 02:02 | 32.22935 | 116.66962 | 34174 ft | 467 kts | 307° |
| 2026-04-21 02:03 | 32.27043 | 116.61037 | 34177 ft | 464 kts | 307° |
| 2026-04-21 02:03 | 32.31131 | 116.55133 | 34174 ft | 467 kts | 306° |
| 2026-04-21 02:04 | 32.35242 | 116.49191 | 34176 ft | 463 kts | 307° |
| 2026-04-21 02:04 | 32.37949 | 116.45275 | 34175 ft | 465 kts | 307° |